createdAt,value
2019-04-22T00:03:52.182Z,101533.77
2019-04-22T00:09:13.805Z,101525.74
2019-04-22T00:14:11.856Z,101521.73
2019-04-22T00:19:22.686Z,101511.00
2019-04-22T00:24:27.568Z,101502.06
2019-04-22T00:29:50.163Z,101494.53
2019-04-22T00:34:37.162Z,101485.91
2019-04-22T00:39:42.629Z,101480.11
2019-04-22T00:44:47.046Z,101474.50
2019-04-22T00:55:06.034Z,101463.53
2019-04-22T01:00:05.542Z,101462.33
2019-04-22T01:05:09.780Z,101457.44
2019-04-22T01:10:13.036Z,101458.26
2019-04-22T01:15:19.189Z,101454.37
2019-04-22T01:20:29.456Z,101445.80
2019-04-22T01:25:21.690Z,101436.87
2019-04-22T01:30:22.159Z,101432.59
2019-04-22T01:35:25.460Z,101425.81
2019-04-22T01:40:45.521Z,101415.20
2019-04-22T01:45:45.109Z,101413.22
2019-04-22T01:50:50.082Z,101404.89
2019-04-22T01:55:59.037Z,101399.34
2019-04-22T02:06:44.366Z,101394.15
2019-04-22T02:11:54.460Z,101392.25
2019-04-22T02:16:56.233Z,101389.30
2019-04-22T02:21:56.537Z,101381.12
2019-04-22T02:26:54.553Z,101383.66
2019-04-22T02:32:13.366Z,101366.97
2019-04-22T02:37:13.368Z,101364.09
2019-04-22T02:47:20.907Z,101351.52
2019-04-22T02:52:34.845Z,101347.27
2019-04-22T03:07:40.943Z,101330.81
2019-04-22T03:12:41.821Z,101332.02
2019-04-22T03:17:51.726Z,101320.99
2019-04-22T03:23:00.295Z,101315.06
2019-04-22T03:28:14.433Z,101313.44
2019-04-22T03:33:10.989Z,101301.42
2019-04-22T03:38:28.916Z,101299.89
2019-04-22T03:48:17.701Z,101293.98
2019-04-22T03:53:21.245Z,101287.42
2019-04-22T03:58:25.395Z,101286.53
2019-04-22T04:03:28.370Z,101281.70
2019-04-22T04:08:33.375Z,101277.13
2019-04-22T04:13:39.486Z,101271.66
2019-04-22T04:18:57.817Z,101272.23
2019-04-22T04:24:22.467Z,101274.47
2019-04-22T04:29:05.070Z,101267.89
2019-04-22T04:34:03.669Z,101270.19
2019-04-22T04:39:10.915Z,101265.30
2019-04-22T04:44:34.244Z,101264.44
2019-04-22T04:49:19.145Z,101262.05
2019-04-22T04:54:31.701Z,101266.49
2019-04-22T04:59:41.829Z,101266.20
2019-04-22T05:04:51.150Z,101256.52
2019-04-22T05:14:41.574Z,101263.02
2019-04-22T05:24:43.285Z,101255.89
2019-04-22T05:34:52.814Z,101253.63
2019-04-22T05:40:06.581Z,101253.33
2019-04-22T05:45:05.244Z,101251.08
2019-04-22T05:50:03.582Z,101250.50
2019-04-22T05:55:22.683Z,101247.18
2019-04-22T06:00:14.588Z,101240.41
2019-04-22T06:05:17.367Z,101248.48
2019-04-22T06:10:29.595Z,101244.19
2019-04-22T06:15:29.070Z,101241.03
2019-04-22T06:20:36.951Z,101237.56
2019-04-22T06:25:58.493Z,101239.97
2019-04-22T06:30:53.880Z,101239.39
2019-04-22T06:35:48.671Z,101229.05
2019-04-22T06:40:56.760Z,101232.86
2019-04-22T06:46:11.413Z,101234.52
2019-04-22T06:51:09.461Z,101233.33
2019-04-22T06:56:12.481Z,101228.23
2019-04-22T07:06:26.561Z,101223.31
2019-04-22T07:11:18.848Z,101220.63
2019-04-22T07:16:38.147Z,101216.05
2019-04-22T07:21:44.199Z,101210.75
2019-04-22T07:26:51.260Z,101214.54
2019-04-22T07:31:56.273Z,101205.96
2019-04-22T07:37:12.513Z,101206.58
2019-04-22T07:41:56.127Z,101200.53
2019-04-22T07:47:15.254Z,101193.77
2019-04-22T07:52:09.520Z,101189.96
2019-04-22T07:57:22.744Z,101188.79
2019-04-22T08:02:16.287Z,101184.91
2019-04-22T08:07:24.182Z,101184.37
2019-04-22T08:12:28.143Z,101183.20
2019-04-22T08:17:52.071Z,101183.99
2019-04-22T08:22:39.469Z,101183.73
2019-04-22T08:27:35.594Z,101172.84
2019-04-22T08:37:50.956Z,101172.69
2019-04-22T08:43:02.166Z,101167.80
2019-04-22T08:47:54.853Z,101156.69
2019-04-22T08:53:02.052Z,101153.38
2019-04-22T09:03:10.346Z,101145.31
2019-04-22T09:08:14.264Z,101138.52
2019-04-22T09:13:13.925Z,101135.91
2019-04-22T09:18:25.129Z,101126.57
2019-04-22T09:28:33.199Z,101116.59
2019-04-22T09:33:32.102Z,101107.47
2019-04-22T09:43:49.032Z,101095.87
2019-04-22T09:48:50.326Z,101095.69
2019-04-22T09:54:02.403Z,101096.28
2019-04-22T09:58:59.003Z,101084.33
2019-04-22T10:04:00.631Z,101071.84
2019-04-22T10:09:29.869Z,101076.47
2019-04-22T10:14:12.493Z,101056.14
2019-04-22T10:19:18.664Z,101054.84
2019-04-22T10:24:36.931Z,101041.06
2019-04-22T10:29:38.598Z,101038.58
2019-04-22T10:34:16.892Z,101030.21
2019-04-22T10:39:12.677Z,101033.84
2019-04-22T10:44:15.340Z,101017.45
2019-04-22T10:49:18.198Z,101006.68
2019-04-22T10:54:20.865Z,101003.80
2019-04-22T10:59:24.702Z,100993.91
2019-04-22T11:04:28.507Z,100987.62
2019-04-22T11:09:31.060Z,100982.25
2019-04-22T11:14:34.726Z,100991.56
2019-04-22T11:19:37.351Z,100988.78
2019-04-22T11:24:41.059Z,100972.07
2019-04-22T11:29:43.849Z,100959.37
2019-04-22T11:34:51.124Z,100958.93
2019-04-22T11:40:04.611Z,100956.02
2019-04-22T11:44:59.348Z,100950.52
2019-04-22T11:50:02.080Z,100944.43
2019-04-22T11:55:06.477Z,100932.78
2019-04-22T12:00:10.261Z,100931.61
2019-04-22T12:05:14.234Z,100926.83
2019-04-22T12:10:28.535Z,100924.10
2019-04-22T12:15:22.662Z,100920.28
2019-04-22T12:20:29.337Z,100906.07
2019-04-22T12:25:46.433Z,100909.94
2019-04-22T12:30:39.436Z,100887.22
2019-04-22T12:35:42.326Z,100889.66
2019-04-22T12:40:52.265Z,100876.45
2019-04-22T12:45:50.138Z,100872.33
2019-04-22T12:50:56.453Z,100869.34
2019-04-22T12:55:59.451Z,100861.66
2019-04-22T13:01:04.988Z,100859.41
2019-04-22T13:06:09.870Z,100853.44
2019-04-22T13:11:19.468Z,100834.02
2019-04-22T13:16:20.683Z,100825.92
2019-04-22T13:21:22.889Z,100818.05
2019-04-22T13:26:25.451Z,100811.77
2019-04-22T13:31:29.036Z,100805.59
2019-04-22T13:36:31.814Z,100807.38
2019-04-22T13:41:44.006Z,100790.77
2019-04-22T13:46:41.113Z,100776.95
2019-04-22T13:57:10.282Z,100768.34
2019-04-22T14:02:16.906Z,100752.57
2019-04-22T14:07:19.123Z,100738.91
2019-04-22T14:12:21.766Z,100738.85
2019-04-22T14:17:25.229Z,100732.48
2019-04-22T14:22:28.343Z,100728.02
2019-04-22T14:27:44.333Z,100713.98
2019-04-22T14:32:37.952Z,100709.81
2019-04-22T14:37:43.186Z,100711.11
2019-04-22T14:43:07.135Z,100698.86
2019-04-22T14:48:19.997Z,100697.25
2019-04-22T14:53:19.415Z,100697.05
2019-04-22T14:58:01.182Z,100689.81
2019-04-22T15:03:03.918Z,100677.39
2019-04-22T15:08:08.855Z,100670.91
2019-04-22T15:13:11.657Z,100663.53
2019-04-22T15:18:44.059Z,100666.13
2019-04-22T15:23:46.717Z,100662.20
2019-04-22T15:28:53.430Z,100656.52
2019-04-22T15:33:58.454Z,100643.02
2019-04-22T15:39:05.106Z,100637.77
2019-04-22T15:44:08.008Z,100640.33
2019-04-22T15:49:11.786Z,100638.41
2019-04-22T15:54:16.473Z,100629.09
2019-04-22T15:59:40.695Z,100624.23
2019-04-22T16:04:26.306Z,100623.14
2019-04-22T16:09:31.405Z,100621.78
2019-04-22T16:14:41.210Z,100619.09
2019-04-22T16:19:39.066Z,100604.64
2019-04-22T16:24:58.277Z,100612.52
2019-04-22T16:30:03.661Z,100608.70
2019-04-22T16:35:08.713Z,100596.23
2019-04-22T16:40:12.427Z,100592.95
2019-04-22T16:45:15.725Z,100600.69
2019-04-22T16:50:20.928Z,100597.11
2019-04-22T16:55:23.555Z,100580.28
2019-04-22T17:00:26.939Z,100586.88
2019-04-22T17:05:59.250Z,100586.28
2019-04-22T17:11:04.026Z,100578.17
2019-04-22T17:16:07.073Z,100572.27
2019-04-22T17:21:10.621Z,100573.67
2019-04-22T17:26:14.589Z,100569.58
2019-04-22T17:31:16.836Z,100567.78
2019-04-22T17:36:20.283Z,100572.66
2019-04-22T17:41:38.627Z,100562.77
2019-04-22T17:46:51.074Z,100565.48
2019-04-22T17:52:21.216Z,100568.98
2019-04-22T17:57:21.607Z,100567.88
2019-04-22T18:02:25.177Z,100565.58
2019-04-22T18:07:35.814Z,100570.91
2019-04-22T18:17:43.051Z,100562.96
2019-04-22T18:22:37.256Z,100570.11
2019-04-22T18:27:55.271Z,100577.22
2019-04-22T18:32:52.185Z,100566.28
2019-04-22T18:37:53.744Z,100572.13
2019-04-22T18:43:06.228Z,100573.20
2019-04-22T18:48:00.953Z,100582.75
2019-04-22T18:53:23.329Z,100580.11
2019-04-22T18:58:16.304Z,100584.34
2019-04-22T19:03:15.622Z,100579.66
2019-04-22T19:08:31.544Z,100578.34
2019-04-22T19:18:45.970Z,100588.39
2019-04-22T19:23:49.155Z,100585.84
2019-04-22T19:29:00.738Z,100580.13
2019-04-22T19:34:06.211Z,100588.63
2019-04-22T19:39:06.965Z,100590.62
2019-04-22T19:44:17.748Z,100591.44
2019-04-22T19:49:23.766Z,100595.80
2019-04-22T19:54:17.401Z,100594.58
2019-04-22T19:59:25.368Z,100588.73
2019-04-22T20:05:02.778Z,100593.19
2019-04-22T20:10:00.129Z,100595.40
2019-04-22T20:15:00.402Z,100594.09
2019-04-22T20:20:09.683Z,100590.44
2019-04-22T20:24:56.430Z,100582.69
2019-04-22T20:30:13.999Z,100581.38
2019-04-22T20:35:21.599Z,100581.23
2019-04-22T20:40:29.787Z,100572.76
2019-04-22T20:45:34.795Z,100577.23
2019-04-22T20:50:36.386Z,100571.63
2019-04-22T20:55:42.041Z,100573.61
2019-04-22T21:00:38.917Z,100567.59
2019-04-22T21:05:47.145Z,100577.21
2019-04-22T21:10:52.094Z,100568.41
2019-04-22T21:16:11.650Z,100571.11
2019-04-22T21:21:07.180Z,100563.13
2019-04-22T21:26:13.828Z,100566.09
2019-04-22T21:31:23.724Z,100562.05
2019-04-22T21:41:24.910Z,100551.05
2019-04-22T21:46:33.513Z,100556.33
2019-04-22T21:51:39.928Z,100555.29
2019-04-22T21:57:09.128Z,100559.13
2019-04-22T22:02:16.198Z,100550.71
2019-04-22T22:06:57.768Z,100562.56
2019-04-22T22:12:10.380Z,100561.10
2019-04-22T22:17:20.642Z,100560.00
2019-04-22T22:22:42.243Z,100554.44
2019-04-22T22:27:34.254Z,100553.65
2019-04-22T22:32:33.767Z,100553.00
2019-04-22T22:37:28.321Z,100539.63
2019-04-22T22:42:30.156Z,100539.77
2019-04-22T22:47:45.672Z,100532.12
2019-04-22T22:52:58.972Z,100543.34
2019-04-22T22:57:58.374Z,100538.30
2019-04-22T23:03:24.605Z,100532.19
2019-04-22T23:08:15.633Z,100538.06
2019-04-22T23:13:20.460Z,100535.98
2019-04-22T23:17:51.879Z,100533.86
2019-04-22T23:23:17.243Z,100525.80
2019-04-22T23:28:29.832Z,100520.57
2019-04-22T23:33:42.726Z,100520.95
2019-04-22T23:38:51.892Z,100513.04
2019-04-22T23:43:55.671Z,100512.77
2019-04-22T23:48:51.938Z,100496.96
2019-04-22T23:54:18.677Z,100500.75
2019-04-22T23:59:10.292Z,100492.38
